Latest Coastal Weather Observations for Montague Island

IDN60701

Issued at 2:21 am EDT Sunday 14 February 2016 (issued every 10 minutes, with the page automatically refreshed every 10 minutes)

About coastal observations | Map of coastal stations | Coastal observations for NSW | Marine services | Other Formats
Station Details ID: 069017 Name: MONTAGUE ISLAND LIGHTHOUSE Lat: -36.25 Lon: 150.23 Height: 52.0 m
Data from the previous 72 hours. | See also: Recent months at Montague Island
Date/Time
EDT
Temp

°C
Wind Pressure Rain
since 9am
mm
Weather Cloud Vis
km
Sea
Height
m
Swell
Dir
 
Speed
knots
Gust
knots
hPa Trend Height
m
Period
s
Dir
14/02:00am 22.5 N 18 22 1004.4 - 0.0 - - - - - - -
14/01:30am 22.7 N 18 24 1004.9 - 0.0 - - - - - - -
14/01:00am 22.8 N 17 23 1005.3 - 0.0 - - - - - - -
14/12:30am 23.0 N 19 25 1005.6 - 0.0 - - - - - - -
14/12:00am 23.1 NNE 23 25 1005.8 - 0.0 - - - - - - -
 
Date/Time
EDT
Temp

°C
Wind Pressure Rain
since 9am
mm
Weather Cloud Vis
km
Sea
Height
m
Swell
Dir
 
Speed
knots
Gust
knots
hPa Trend Height
m
Period
s
Dir
13/11:30pm 23.2 NNE 23 27 1006.2 - 0.0 - - - - - - -
13/11:00pm 23.2 NNE 24 27 1006.5 - 0.0 - - - - - - -
13/10:30pm 23.4 NNE 24 29 1007.1 - 0.0 - - - - - - -
13/10:00pm 23.3 NNE 20 24 1007.3 - 0.0 - - - - - - -
13/09:30pm 23.4 NNE 21 27 1007.3 - 0.0 - - - - - - -
13/09:00pm 23.5 NNE 21 25 1007.1 - 0.0 - - - - - - -
13/08:30pm 23.6 N 17 23 1007.1 - 0.0 - - - - - - -
13/08:00pm 23.7 N 17 23 1007.0 - 0.0 - - - - - - -
13/07:30pm 23.8 N 17 23 1006.8 - 0.0 - - - - - - -
13/07:00pm 23.9 N 16 20 1006.8 - 0.0 - - - - - - -
13/06:30pm 24.0 N 17 22 1006.6 - 0.0 - - - - - - -
13/06:00pm 24.0 NNE 20 24 1006.6 - 0.0 - - - - - - -
13/05:30pm 24.1 NNE 17 22 1007.3 - 0.0 - - - - - - -
13/05:00pm 24.1 NNE 18 23 1007.4 - 0.0 - - - - - - -
13/04:30pm 24.2 NNE 22 28 1007.4 - 0.0 - - - - - - -
13/04:00pm 24.4 NNE 20 25 1007.9 - 0.0 - - - - - - -
13/03:30pm 24.7 NNE 18 22 1008.3 - 0.0 - - - - - - -
13/03:00pm 24.6 NNE 21 25 1008.5 - 0.0 - - - - - - -
13/02:30pm 24.6 NNE 21 25 1008.8 - 0.0 - - - - - - -
13/02:00pm 24.8 NNE 19 25 1009.3 - 0.0 - - - - - - -
13/01:30pm 24.6 NNE 19 25 1009.6 - 0.0 - - - - - - -
13/01:00pm 24.5 NNE 19 24 1009.8 - 0.0 - - - - - - -
13/12:30pm 24.8 NNE 18 22 1010.3 - 0.0 - - - - - - -
13/12:00pm 24.4 NNE 19 24 1010.9 - 0.0 - - - - - - -
13/11:30am 24.0 NNE 20 23 1011.1 - 0.0 - - - - - - -
13/11:00am 24.0 NNE 18 21 1011.4 - 0.0 - - - - - - -
13/10:30am 23.9 NNE 19 22 1011.7 - 0.0 - - - - - - -
13/10:00am 23.9 N 15 19 1011.9 - 0.0 - - - - - - -
13/09:30am 23.4 NNE 17 21 1012.0 - 0.0 - - - - - - -
13/09:00am 23.4 N 15 19 1012.2 - 0.2 - - - - - - -
13/08:30am 23.1 N 15 19 1012.1 - 0.2 - - - - - - -
13/08:00am 22.9 N 14 17 1012.1 - 0.2 - - - - - - -
13/07:30am 22.5 N 15 19 1012.1 - 0.2 - - - - - - -
13/07:00am 22.1 NNE 16 18 1011.9 - 0.2 - - - - - - -
13/06:30am 22.0 NNE 15 17 1011.8 - 0.2 - - - - - - -
13/06:00am 22.2 NNE 14 17 1011.8 - 0.2 - - - - - - -
13/05:30am 22.1 N 15 19 1011.6 - 0.2 - - - - - - -
13/05:00am 22.1 N 15 20 1011.6 - 0.2 - - - - - - -
13/04:30am 22.1 N 15 19 1011.7 - 0.2 - - - - - - -
13/04:00am 22.3 N 15 19 1011.9 - 0.2 - - - - - - -
13/03:30am 22.4 NNE 17 21 1012.0 - 0.2 - - - - - - -
13/03:00am 22.6 N 14 19 1012.3 - 0.2 - - - - - - -
13/02:30am 22.7 N 16 21 1012.7 - 0.2 - - - - - - -
13/02:00am 23.0 NNE 21 25 1013.0 - 0.2 - - - - - - -
13/01:30am 23.1 NNE 19 24 1013.3 - 0.2 - - - - - - -
13/01:00am 23.0 NNE 18 22 1013.6 - 0.2 - - - - - - -
13/12:30am 23.0 NNE 19 24 1013.7 - 0.2 - - - - - - -
13/12:00am 23.1 NNE 20 24 1013.8 - 0.2 - - - - - - -
 
Date/Time
EDT
Temp

°C
Wind Pressure Rain
since 9am
mm
Weather Cloud Vis
km
Sea
Height
m
Swell
Dir
 
Speed
knots
Gust
knots
hPa Trend Height
m
Period
s
Dir
12/11:30pm 23.2 NNE 20 23 1014.1 - 0.2 - - - - - - -
12/11:00pm 23.1 NNE 19 22 1014.3 - 0.2 - - - - - - -
12/10:30pm 23.3 NNE 19 22 1014.6 - 0.2 - - - - - - -
12/10:00pm 23.2 NNE 18 20 1014.7 - 0.2 - - - - - - -
12/09:30pm 23.2 NNE 17 22 1014.5 - 0.2 - - - - - - -
12/09:00pm 23.3 NNE 17 21 1014.3 - 0.2 - - - - - - -
12/08:30pm 23.3 NNE 17 21 1014.3 - 0.2 - - - - - - -
12/08:00pm 23.4 NNE 19 22 1014.0 - 0.2 - - - - - - -
12/07:30pm 23.4 NNE 18 21 1013.6 - 0.2 - - - - - - -
12/07:00pm 23.5 NNE 17 21 1013.4 - 0.2 - - - - - - -
12/06:30pm 23.7 NNE 18 22 1013.3 - 0.2 - - - - - - -
12/06:00pm 24.0 NNE 18 23 1013.5 - 0.2 - - - - - - -
12/05:30pm 24.1 NNE 19 22 1013.4 - 0.2 - - - - - - -
12/05:00pm 24.4 NNE 19 23 1013.6 - 0.2 - - - - - - -
12/04:30pm 24.5 NNE 16 19 1013.5 - 0.2 - - - - - - -
12/04:00pm 24.7 NNE 16 18 1013.7 - 0.2 - - - - - - -
12/03:30pm 25.5 NNE 11 15 1014.1 - 0.2 - - - - - - -
12/03:00pm 24.7 NE 13 16 1014.3 - 0.2 - - - - - - -
12/02:30pm 24.3 NE 13 15 1014.6 - 0.2 - - - - - - -
12/02:00pm 24.4 NE 13 15 1015.0 - 0.2 - - - - - - -
12/01:30pm 24.3 NE 12 13 1015.3 - 0.2 - - - - - - -
12/01:00pm 24.2 NE 11 12 1015.5 - 0.2 - - - - - - -
12/12:30pm 23.6 ENE 9 12 1015.8 - 0.2 - - - - - - -
12/12:00pm 24.6 ENE 8 10 1016.2 - 0.2 - - - - - - -
12/11:30am 23.9 E 6 7 1016.3 - 0.2 - - - - - - -
12/11:00am 22.9 E 4 5 1016.5 - 0.2 - - - - - - -
12/10:30am 23.0 SE 4 5 1016.8 - 0.2 - - - - - - -
12/10:00am 23.5 WSW 3 5 1016.7 - 0.0 - - - - - - -
12/09:30am 23.1 WSW 4 6 1016.7 - 0.0 - - - - - - -
12/09:00am 22.3 SW 4 6 1016.8 - 2.6 - - - - - - -
12/08:30am 21.6 SSW 5 7 1016.6 - 2.6 - - - - - - -
12/08:00am 20.9 SSW 7 8 1016.5 - 2.6 - - - - - - -
12/07:30am 20.5 SW 7 9 1016.3 - 2.6 - - - - - - -
12/07:00am 20.3 SW 7 8 1016.0 - 2.6 - - - - - - -
12/06:30am 20.4 SSW 7 9 1015.8 - 2.6 - - - - - - -
12/06:00am 20.5 SSW 8 9 1015.4 - 2.6 - - - - - - -
12/05:30am 20.5 SSW 10 12 1015.2 - 2.6 - - - - - - -
12/05:00am 20.6 SSW 9 11 1015.0 - 2.6 - - - - - - -
12/04:30am 20.6 SSW 7 9 1015.0 - 2.6 - - - - - - -
12/04:00am 20.8 SSW 8 10 1015.1 - 2.6 - - - - - - -
12/03:30am 20.8 SSW 8 9 1015.0 - 2.6 - - - - - - -
12/03:00am 21.0 SSW 6 7 1015.1 - 2.6 - - - - - - -
12/02:30am 21.0 SW 6 8 1015.3 - 2.6 - - - - - - -
12/02:00am 21.1 SW 7 8 1015.7 - 2.6 - - - - - - -
12/01:30am 21.2 SW 3 4 1015.9 - 2.6 - - - - - - -
12/01:00am 21.4 SSW 4 4 1016.2 - 2.6 - - - - - - -
12/12:30am 21.6 WSW 3 4 1016.3 - 2.6 - - - - - - -
12/12:00am 22.0 WSW 4 5 1016.4 - 2.6 - - - - - - -
 
Date/Time
EDT
Temp

°C
Wind Pressure Rain
since 9am
mm
Weather Cloud Vis
km
Sea
Height
m
Swell
Dir
 
Speed
knots
Gust
knots
hPa Trend Height
m
Period
s
Dir
11/11:30pm 22.5 W 3 4 1016.6 - 2.6 - - - - - - -
11/11:00pm 22.5 NW 1 2 1016.5 - 2.6 - - - - - - -
11/10:30pm 22.4 NNE 2 3 1016.4 - 2.6 - - - - - - -
11/10:00pm 22.6 NE 6 9 1016.6 - 2.6 - - - - - - -
11/09:30pm 22.3 SE 5 6 1016.2 - 2.4 - - - - - - -
11/09:00pm 22.9 ESE 8 10 1015.8 - 0.2 - - - - - - -
11/08:30pm 22.8 ESE 10 12 1015.2 - 0.2 - - - - - - -
11/08:00pm 22.8 ESE 9 11 1015.3 - 0.2 - - - - - - -
11/07:30pm 22.7 ESE 10 12 1015.2 - 0.2 - - - - - - -
11/07:00pm 22.6 SE 12 13 1014.8 - 0.2 - - - - - - -
11/06:30pm 22.6 ESE 11 13 1014.7 - 0.2 - - - - - - -
11/06:00pm 22.6 ESE 11 13 1014.5 - 0.2 - - - - - - -
11/05:30pm 22.5 SE 11 12 1014.7 - 0.2 - - - - - - -
11/05:00pm 22.7 SE 12 14 1014.6 - 0.2 - - - - - - -
11/04:30pm 22.5 ESE 13 15 1014.4 - 0.2 - - - - - - -
11/04:00pm 22.7 SE 14 16 1014.5 - 0.2 - - - - - - -
11/03:30pm 23.4 SE 15 17 1014.7 - 0.2 - - - - - - -
11/03:00pm 23.4 SE 15 17 1014.9 - 0.2 - - - - - - -
11/02:30pm 23.7 SE 15 17 1015.4 - 0.2 - - - - - - -
11/02:00pm 23.6 SE 16 18 1015.5 - 0.2 - - - - - - -
11/01:30pm 23.4 SSE 16 19 1015.7 - 0.2 - - - - - - -
11/01:00pm 23.7 SSE 15 17 1015.7 - 0.2 - - - - - - -
11/12:30pm 25.4 S 7 11 1015.7 - 0.2 - - - - - - -
11/12:00pm 24.5 SW 11 14 1015.9 - 0.2 Recent precip. - - - - - -
11/11:30am 23.3 WSW 15 21 1016.1 - 0.2 - - - - - - -
11/11:00am 23.5 SW 15 19 1015.8 - 0.0 - - - - - - -
11/10:30am 23.4 SSW 13 17 1015.7 - 0.0 - - - - - - -
11/10:00am 22.0 SW 12 15 1015.8 - 0.0 - - - - - - -
11/09:30am 22.9 SW 7 9 1015.8 - 0.0 - - - - - - -
11/09:00am 23.0 SW 11 14 1015.5 - - - - - - - - -
11/08:30am 22.5 SW 10 12 1015.4 - - - - - - - - -
11/08:00am 22.0 SW 9 11 1015.2 - - - - - - - - -
11/07:30am 21.6 SSW 11 13 1014.9 - - - - - - - - -
11/07:00am 21.2 SW 11 14 1014.6 - - - - - - - - -
11/06:30am 21.3 SW 11 13 1014.3 - - - - - - - - -
11/06:00am 21.4 SW 10 13 1014.2 - - - - - - - - -
11/05:30am 21.4 SW 11 13 1013.7 - - - - - - - - -
11/05:00am 21.3 SSW 11 14 1013.4 - - - - - - - - -
11/04:30am 21.3 SSW 9 12 1013.3 - - - - - - - - -
11/04:00am 21.3 SSW 9 11 1013.3 - - - - - - - - -
11/03:30am 21.4 SSW 10 12 1013.5 - - - - - - - - -
11/03:00am 21.3 SW 10 12 1013.6 - 0.0 - - - - - - -
11/02:30am 21.4 SW 10 12 1013.7 - - - - - - - - -

Other Formats:

Comma delimited format used in spreadsheet applications
http://www.bom.gov.au/fwo/IDN60701/IDN60701.94939.axf

JavaScript Object Notation format (JSON) in row-major order
http://www.bom.gov.au/fwo/IDN60701/IDN60701.94939.json